createdAt,value
2023-04-09T00:00:06.107Z,298.00
2023-04-09T00:01:06.103Z,296.00
2023-04-09T00:02:06.221Z,296.00
2023-04-09T00:03:06.268Z,293.00
2023-04-09T00:04:06.356Z,292.00
2023-04-09T00:05:06.340Z,293.00
2023-04-09T00:06:06.447Z,295.00
2023-04-09T00:07:06.488Z,298.00
2023-04-09T00:08:06.566Z,298.00
2023-04-09T00:09:06.598Z,299.00
2023-04-09T00:10:06.746Z,297.00
2023-04-09T00:11:06.817Z,295.00
2023-04-09T00:12:06.818Z,293.00
2023-04-09T00:13:06.869Z,293.00
2023-04-09T00:14:06.956Z,294.00
2023-04-09T00:15:08.478Z,294.00
2023-04-09T00:16:07.051Z,293.00
2023-04-09T00:17:07.008Z,294.00
2023-04-09T00:18:07.014Z,292.00
2023-04-09T00:19:07.030Z,293.00
2023-04-09T00:20:07.027Z,294.00
2023-04-09T00:21:07.162Z,294.00
2023-04-09T00:22:07.014Z,297.00
2023-04-09T00:23:07.039Z,299.00
2023-04-09T00:24:07.026Z,299.00
2023-04-09T00:25:07.043Z,298.00
2023-04-09T00:26:07.030Z,298.00
2023-04-09T00:27:07.033Z,294.00
2023-04-09T00:28:07.033Z,293.00
2023-04-09T00:29:07.034Z,295.00
2023-04-09T00:30:07.038Z,295.00
2023-04-09T00:31:07.044Z,294.00
2023-04-09T00:32:07.068Z,294.00
2023-04-09T00:33:07.087Z,295.00
2023-04-09T00:34:07.090Z,295.00
2023-04-09T00:35:07.074Z,294.00
2023-04-09T00:36:07.092Z,297.00
2023-04-09T00:37:07.048Z,296.00
2023-04-09T00:38:07.054Z,298.00
2023-04-09T00:39:07.054Z,296.00
2023-04-09T00:40:07.080Z,299.00
2023-04-09T00:41:07.057Z,299.00
2023-04-09T00:42:07.057Z,299.00
2023-04-09T00:43:07.041Z,298.00
2023-04-09T00:44:07.082Z,296.00
2023-04-09T00:45:07.158Z,298.00
2023-04-09T00:46:07.278Z,299.00
2023-04-09T00:47:07.275Z,296.00
2023-04-09T00:48:07.285Z,293.00
2023-04-09T00:49:07.304Z,293.00
2023-04-09T00:50:07.293Z,294.00
2023-04-09T00:51:07.282Z,292.00
2023-04-09T00:52:07.302Z,290.00
2023-04-09T00:53:07.323Z,291.00
2023-04-09T00:54:07.311Z,291.00
2023-04-09T00:55:07.306Z,294.00
2023-04-09T00:56:07.288Z,294.00
2023-04-09T00:57:07.298Z,295.00
2023-04-09T00:58:07.311Z,296.00
2023-04-09T00:59:07.298Z,295.00
2023-04-09T01:00:07.310Z,293.00
2023-04-09T01:01:07.357Z,288.00
2023-04-09T01:02:07.440Z,285.00
2023-04-09T01:03:07.576Z,286.00
2023-04-09T01:04:07.528Z,284.00
2023-04-09T01:05:07.576Z,286.00
2023-04-09T01:06:07.589Z,288.00
2023-04-09T01:07:07.633Z,287.00
2023-04-09T01:08:07.677Z,286.00
2023-04-09T01:09:07.727Z,287.00
2023-04-09T01:10:07.799Z,286.00
2023-04-09T01:11:07.850Z,282.00
2023-04-09T01:12:07.936Z,283.00
2023-04-09T01:13:08.000Z,283.00
2023-04-09T01:14:08.047Z,285.00
2023-04-09T01:15:08.122Z,284.00
2023-04-09T01:16:08.218Z,283.00
2023-04-09T01:17:08.255Z,284.00
2023-04-09T01:18:08.337Z,285.00
2023-04-09T01:19:08.395Z,285.00
2023-04-09T01:20:08.518Z,286.00
2023-04-09T01:21:08.574Z,288.00
2023-04-09T01:22:08.684Z,288.00
2023-04-09T01:23:08.709Z,290.00
2023-04-09T01:24:08.782Z,292.00
2023-04-09T01:25:08.868Z,291.00
2023-04-09T01:26:08.919Z,290.00
2023-04-09T01:27:09.012Z,291.00
2023-04-09T01:28:09.038Z,292.00
2023-04-09T01:29:09.096Z,293.00
2023-04-09T01:30:09.172Z,292.00
2023-04-09T01:31:09.342Z,291.00
2023-04-09T01:32:09.306Z,291.00
2023-04-09T01:33:09.342Z,288.00
2023-04-09T01:34:09.440Z,286.00
2023-04-09T01:35:09.481Z,286.00
2023-04-09T01:36:09.601Z,282.00
2023-04-09T01:37:09.639Z,282.00
2023-04-09T01:38:09.689Z,281.00
2023-04-09T01:39:09.742Z,282.00
2023-04-09T01:40:09.797Z,282.00
2023-04-09T01:41:09.859Z,284.00
2023-04-09T01:42:09.927Z,283.00
2023-04-09T01:43:10.001Z,283.00
2023-04-09T01:44:10.046Z,283.00
2023-04-09T01:45:10.103Z,282.00
2023-04-09T01:46:10.144Z,282.00
2023-04-09T01:47:10.191Z,283.00
2023-04-09T01:48:10.139Z,283.00
2023-04-09T01:49:10.149Z,287.00
2023-04-09T01:50:10.168Z,290.00
2023-04-09T01:51:10.180Z,291.00
2023-04-09T01:52:10.218Z,293.00
2023-04-09T01:53:10.232Z,293.00
2023-04-09T01:54:10.258Z,294.00
2023-04-09T01:55:10.302Z,292.00
2023-04-09T01:56:10.362Z,293.00
2023-04-09T01:57:10.398Z,291.00
2023-04-09T01:58:10.447Z,287.00
2023-04-09T01:59:10.474Z,289.00
2023-04-09T02:00:10.533Z,288.00
2023-04-09T02:01:10.604Z,288.00
2023-04-09T02:02:10.736Z,288.00
2023-04-09T02:03:10.780Z,288.00
2023-04-09T02:04:10.785Z,290.00
2023-04-09T02:05:10.844Z,292.00
2023-04-09T02:06:10.900Z,293.00
2023-04-09T02:07:10.957Z,294.00
2023-04-09T02:08:11.039Z,293.00
2023-04-09T02:09:11.067Z,294.00
2023-04-09T02:10:11.146Z,293.00
2023-04-09T02:11:11.223Z,292.00
2023-04-09T02:12:11.288Z,289.00
2023-04-09T02:13:11.354Z,290.00
2023-04-09T02:14:11.540Z,294.00
2023-04-09T02:15:11.485Z,293.00
2023-04-09T02:16:11.602Z,293.00
2023-04-09T02:17:11.647Z,291.00
2023-04-09T02:18:11.710Z,292.00
2023-04-09T02:19:11.782Z,291.00
2023-04-09T02:20:11.823Z,289.00
2023-04-09T02:21:11.936Z,289.00
2023-04-09T02:22:11.986Z,288.00
2023-04-09T02:23:12.052Z,289.00
2023-04-09T02:24:12.150Z,288.00
2023-04-09T02:25:12.211Z,288.00
2023-04-09T02:26:12.300Z,288.00
2023-04-09T02:27:12.385Z,286.00
2023-04-09T02:28:12.439Z,286.00
2023-04-09T02:29:12.475Z,285.00
2023-04-09T02:30:12.518Z,285.00
2023-04-09T02:31:12.645Z,285.00
2023-04-09T02:32:12.628Z,285.00
2023-04-09T02:33:12.722Z,285.00
2023-04-09T02:34:12.785Z,286.00
2023-04-09T02:35:12.884Z,284.00
2023-04-09T02:36:13.008Z,282.00
2023-04-09T02:37:13.009Z,283.00
2023-04-09T02:38:13.074Z,284.00
2023-04-09T02:39:13.142Z,284.00
2023-04-09T02:40:13.214Z,283.00
2023-04-09T02:41:13.251Z,283.00
2023-04-09T02:42:13.273Z,286.00
2023-04-09T02:43:13.310Z,284.00
2023-04-09T02:44:13.314Z,284.00
2023-04-09T02:45:13.379Z,286.00
2023-04-09T02:46:13.469Z,284.00
2023-04-09T02:47:13.433Z,284.00
2023-04-09T02:48:13.464Z,285.00
2023-04-09T02:49:13.513Z,287.00
2023-04-09T02:50:13.538Z,287.00
2023-04-09T02:51:13.608Z,289.00
2023-04-09T02:52:13.633Z,288.00
2023-04-09T02:53:13.669Z,288.00
2023-04-09T02:54:13.705Z,287.00
2023-04-09T02:55:13.796Z,285.00
2023-04-09T02:56:13.840Z,285.00
2023-04-09T02:57:13.846Z,283.00
2023-04-09T02:58:13.887Z,284.00
2023-04-09T02:59:13.898Z,286.00
2023-04-09T03:00:13.912Z,284.00
2023-04-09T03:01:13.948Z,284.00
2023-04-09T03:02:14.066Z,285.00
2023-04-09T03:03:14.102Z,286.00
2023-04-09T03:04:14.042Z,285.00
2023-04-09T03:05:13.964Z,285.00
2023-04-09T03:06:14.005Z,285.00
2023-04-09T03:07:14.017Z,286.00
2023-04-09T03:08:14.037Z,285.00
2023-04-09T03:09:14.038Z,285.00
2023-04-09T03:10:14.070Z,286.00
2023-04-09T03:11:14.086Z,286.00
2023-04-09T03:12:14.126Z,286.00
2023-04-09T03:13:14.184Z,287.00
2023-04-09T03:14:14.168Z,287.00
2023-04-09T03:15:14.218Z,285.00
2023-04-09T03:16:14.267Z,283.00
2023-04-09T03:17:14.291Z,283.00
2023-04-09T03:18:14.303Z,282.00
2023-04-09T03:19:14.323Z,282.00
2023-04-09T03:20:14.359Z,282.00
2023-04-09T03:21:15.157Z,284.00
2023-04-09T03:22:14.401Z,283.00
2023-04-09T03:23:14.429Z,283.00
2023-04-09T03:24:14.488Z,282.00
2023-04-09T03:25:14.505Z,282.00
2023-04-09T03:26:14.545Z,282.00
2023-04-09T03:27:14.562Z,284.00
2023-04-09T03:28:14.593Z,285.00
2023-04-09T03:29:14.623Z,285.00
2023-04-09T03:30:14.654Z,285.00
2023-04-09T03:31:14.699Z,284.00
2023-04-09T03:32:14.804Z,285.00
2023-04-09T03:33:14.689Z,285.00
2023-04-09T03:34:14.732Z,283.00
2023-04-09T03:35:14.776Z,283.00
2023-04-09T03:36:14.801Z,285.00
2023-04-09T03:37:14.851Z,287.00
2023-04-09T03:38:14.902Z,289.00
2023-04-09T03:39:14.951Z,288.00
2023-04-09T03:40:15.012Z,288.00
2023-04-09T03:41:15.112Z,287.00
2023-04-09T03:42:15.079Z,289.00
2023-04-09T03:43:15.114Z,291.00
2023-04-09T03:44:15.155Z,293.00
2023-04-09T03:45:15.182Z,291.00
2023-04-09T03:46:15.243Z,292.00
2023-04-09T03:47:15.260Z,292.00
2023-04-09T03:48:15.258Z,290.00
2023-04-09T03:49:15.303Z,289.00
2023-04-09T03:50:15.370Z,290.00
2023-04-09T03:51:15.445Z,289.00
2023-04-09T03:52:15.500Z,288.00
2023-04-09T03:53:15.558Z,287.00
2023-04-09T03:54:15.628Z,283.00
2023-04-09T03:55:15.681Z,283.00
2023-04-09T03:56:15.775Z,284.00
2023-04-09T03:57:15.822Z,284.00
2023-04-09T03:58:15.883Z,284.00
2023-04-09T03:59:15.953Z,285.00
2023-04-09T04:00:16.021Z,287.00
2023-04-09T04:01:16.096Z,287.00
2023-04-09T04:02:16.238Z,286.00
2023-04-09T04:03:16.494Z,286.00
2023-04-09T04:04:16.254Z,286.00
2023-04-09T04:05:16.214Z,287.00
2023-04-09T04:06:16.205Z,285.00
2023-04-09T04:07:16.227Z,285.00
2023-04-09T04:08:16.228Z,286.00
2023-04-09T04:09:16.204Z,285.00
2023-04-09T04:10:16.215Z,283.00
2023-04-09T04:11:16.221Z,280.00
2023-04-09T04:12:16.215Z,280.00
2023-04-09T04:13:16.314Z,281.00
2023-04-09T04:14:16.233Z,282.00
2023-04-09T04:15:16.252Z,282.00
2023-04-09T04:16:16.385Z,283.00
2023-04-09T04:17:16.417Z,281.00
2023-04-09T04:18:16.478Z,281.00
2023-04-09T04:19:16.521Z,283.00
2023-04-09T04:20:16.511Z,283.00
2023-04-09T04:21:16.506Z,285.00
2023-04-09T04:22:16.546Z,284.00
2023-04-09T04:23:16.498Z,281.00
2023-04-09T04:24:16.504Z,280.00
2023-04-09T04:25:16.514Z,281.00
2023-04-09T04:26:16.509Z,281.00
2023-04-09T04:27:16.544Z,282.00
2023-04-09T04:28:16.578Z,283.00
2023-04-09T04:29:16.625Z,281.00
2023-04-09T04:30:16.682Z,282.00
2023-04-09T04:31:16.752Z,286.00
2023-04-09T04:32:16.802Z,284.00
2023-04-09T04:33:16.798Z,286.00
2023-04-09T04:34:16.795Z,283.00
2023-04-09T04:35:16.869Z,285.00
2023-04-09T04:36:16.806Z,283.00
2023-04-09T04:37:16.801Z,283.00
2023-04-09T04:38:16.805Z,281.00
2023-04-09T04:39:16.842Z,283.00
2023-04-09T04:40:16.806Z,284.00
2023-04-09T04:41:16.809Z,283.00
2023-04-09T04:42:16.858Z,285.00
2023-04-09T04:43:16.912Z,281.00
2023-04-09T04:44:16.987Z,281.00
2023-04-09T04:45:17.061Z,288.00
2023-04-09T04:46:17.134Z,288.00
2023-04-09T04:47:17.189Z,288.00
2023-04-09T04:48:17.265Z,289.00
2023-04-09T04:49:17.306Z,286.00
2023-04-09T04:50:17.402Z,284.00
2023-04-09T04:51:17.442Z,283.00
2023-04-09T04:52:17.911Z,283.00
2023-04-09T04:53:17.625Z,284.00
2023-04-09T04:54:17.672Z,283.00
2023-04-09T04:55:17.765Z,283.00
2023-04-09T04:56:17.821Z,282.00
2023-04-09T04:57:17.897Z,281.00
2023-04-09T04:58:17.979Z,280.00
2023-04-09T04:59:18.014Z,281.00
2023-04-09T05:00:18.106Z,282.00
2023-04-09T05:01:18.248Z,285.00
2023-04-09T05:02:18.419Z,288.00
2023-04-09T05:03:18.445Z,289.00
2023-04-09T05:04:18.406Z,289.00
2023-04-09T05:05:18.488Z,288.00
2023-04-09T05:06:18.544Z,289.00
2023-04-09T05:07:18.626Z,286.00
2023-04-09T05:08:18.693Z,286.00
2023-04-09T05:09:20.484Z,287.00
2023-04-09T05:10:18.772Z,288.00
2023-04-09T05:11:18.779Z,289.00
2023-04-09T05:12:18.832Z,288.00
2023-04-09T05:13:18.799Z,284.00
2023-04-09T05:14:18.807Z,286.00
2023-04-09T05:15:18.813Z,288.00
2023-04-09T05:16:18.880Z,287.00
2023-04-09T05:17:18.866Z,286.00
2023-04-09T05:18:18.847Z,284.00
2023-04-09T05:19:18.849Z,284.00
2023-04-09T05:20:18.870Z,285.00
2023-04-09T05:21:18.888Z,286.00
2023-04-09T05:22:18.882Z,286.00
2023-04-09T05:23:18.897Z,287.00
2023-04-09T05:24:18.914Z,288.00
2023-04-09T05:25:18.928Z,285.00
2023-04-09T05:26:18.915Z,282.00
2023-04-09T05:27:18.970Z,283.00
2023-04-09T05:28:18.951Z,286.00
2023-04-09T05:29:18.966Z,285.00
2023-04-09T05:30:18.954Z,284.00
2023-04-09T05:31:19.176Z,285.00
2023-04-09T05:32:19.017Z,285.00
2023-04-09T05:33:18.977Z,286.00
2023-04-09T05:34:18.962Z,286.00
2023-04-09T05:35:18.985Z,285.00
2023-04-09T05:36:18.976Z,286.00
2023-04-09T05:37:19.001Z,287.00
2023-04-09T05:38:19.002Z,287.00
2023-04-09T05:39:19.012Z,288.00
2023-04-09T05:40:19.011Z,291.00
2023-04-09T05:41:19.019Z,290.00
2023-04-09T05:42:19.030Z,290.00
2023-04-09T05:43:19.026Z,290.00
2023-04-09T05:44:19.041Z,290.00
2023-04-09T05:45:19.044Z,290.00
2023-04-09T05:46:19.115Z,289.00
2023-04-09T05:47:19.075Z,290.00
2023-04-09T05:48:19.061Z,290.00
2023-04-09T05:49:19.098Z,292.00
2023-04-09T05:50:19.076Z,291.00
2023-04-09T05:51:19.106Z,294.00
2023-04-09T05:52:19.109Z,291.00
2023-04-09T05:53:19.088Z,288.00
2023-04-09T05:54:19.094Z,291.00
2023-04-09T05:55:19.098Z,291.00
2023-04-09T05:56:19.093Z,291.00
2023-04-09T05:57:19.123Z,290.00
2023-04-09T05:58:19.102Z,289.00
2023-04-09T05:59:19.130Z,289.00
2023-04-09T06:00:19.144Z,287.00
2023-04-09T06:01:19.188Z,283.00
2023-04-09T06:02:19.321Z,283.00
2023-04-09T06:03:19.506Z,282.00
2023-04-09T06:04:19.661Z,283.00
2023-04-09T06:05:19.380Z,285.00
2023-04-09T06:06:19.398Z,286.00
2023-04-09T06:07:19.414Z,285.00
2023-04-09T06:08:19.449Z,285.00
2023-04-09T06:09:19.478Z,285.00
2023-04-09T06:10:19.568Z,285.00
2023-04-09T06:11:19.545Z,287.00
2023-04-09T06:12:19.584Z,288.00
2023-04-09T06:13:19.661Z,290.00
2023-04-09T06:14:19.708Z,288.00
2023-04-09T06:15:19.773Z,286.00
2023-04-09T06:16:19.847Z,287.00
2023-04-09T06:17:19.948Z,287.00
2023-04-09T06:18:19.960Z,290.00
2023-04-09T06:19:19.949Z,289.00
2023-04-09T06:20:19.962Z,289.00
2023-04-09T06:21:19.954Z,290.00
2023-04-09T06:22:19.961Z,292.00
2023-04-09T06:23:19.960Z,290.00
2023-04-09T06:24:19.950Z,290.00
2023-04-09T06:25:19.959Z,289.00
2023-04-09T06:26:19.960Z,290.00
2023-04-09T06:27:19.957Z,290.00
2023-04-09T06:28:19.955Z,290.00
2023-04-09T06:29:20.363Z,290.00
2023-04-09T06:30:19.974Z,287.00
2023-04-09T06:31:19.990Z,290.00
2023-04-09T06:32:19.968Z,291.00
2023-04-09T06:33:20.316Z,289.00
2023-04-09T06:34:20.000Z,287.00
2023-04-09T06:35:20.002Z,288.00
2023-04-09T06:36:19.998Z,287.00
2023-04-09T06:37:20.000Z,288.00
2023-04-09T06:38:19.995Z,288.00
2023-04-09T06:39:20.009Z,289.00
2023-04-09T06:40:22.824Z,291.00
2023-04-09T06:41:20.044Z,292.00
2023-04-09T06:42:20.060Z,294.00
2023-04-09T06:43:20.061Z,290.00
2023-04-09T06:44:20.050Z,289.00
2023-04-09T06:45:20.032Z,287.00
2023-04-09T06:46:20.128Z,288.00
2023-04-09T06:47:20.045Z,290.00
2023-04-09T06:48:20.203Z,292.00
2023-04-09T06:49:20.043Z,293.00
2023-04-09T06:50:20.032Z,294.00
2023-04-09T06:51:20.037Z,295.00
2023-04-09T06:52:20.036Z,294.00
2023-04-09T06:53:20.130Z,294.00
2023-04-09T06:54:20.119Z,295.00
2023-04-09T06:55:20.037Z,294.00
2023-04-09T06:56:20.045Z,291.00
2023-04-09T06:57:20.051Z,291.00
2023-04-09T06:58:20.041Z,290.00
2023-04-09T06:59:20.041Z,289.00
2023-04-09T07:00:20.062Z,291.00
2023-04-09T07:01:20.047Z,290.00
2023-04-09T07:02:20.215Z,290.00
2023-04-09T07:03:20.282Z,290.00
2023-04-09T07:04:20.228Z,289.00
2023-04-09T07:05:20.060Z,288.00
2023-04-09T07:06:20.082Z,288.00
2023-04-09T07:07:20.071Z,289.00
2023-04-09T07:08:20.081Z,288.00
2023-04-09T07:09:20.062Z,292.00
2023-04-09T07:10:20.063Z,292.00
2023-04-09T07:11:20.069Z,293.00
2023-04-09T07:12:20.064Z,296.00
2023-04-09T07:13:20.076Z,295.00
2023-04-09T07:14:20.124Z,294.00
2023-04-09T07:15:20.059Z,294.00
2023-04-09T07:16:20.117Z,295.00
2023-04-09T07:17:20.064Z,295.00
2023-04-09T07:18:20.069Z,295.00
2023-04-09T07:19:20.077Z,295.00
2023-04-09T07:20:20.068Z,294.00
2023-04-09T07:21:20.070Z,293.00
2023-04-09T07:22:20.093Z,294.00
2023-04-09T07:23:20.115Z,294.00
2023-04-09T07:24:20.159Z,293.00
2023-04-09T07:25:20.243Z,292.00
2023-04-09T07:26:20.300Z,292.00
2023-04-09T07:27:20.372Z,292.00
2023-04-09T07:28:20.466Z,291.00
2023-04-09T07:29:20.529Z,293.00
2023-04-09T07:30:20.604Z,293.00
2023-04-09T07:31:20.688Z,292.00
2023-04-09T07:32:20.772Z,291.00
2023-04-09T07:33:20.830Z,288.00
2023-04-09T07:34:21.031Z,287.00
2023-04-09T07:35:20.947Z,286.00
2023-04-09T07:36:21.073Z,289.00
2023-04-09T07:37:21.085Z,289.00
2023-04-09T07:38:21.160Z,289.00
2023-04-09T07:39:21.240Z,292.00
2023-04-09T07:40:21.305Z,292.00
2023-04-09T07:41:21.393Z,294.00
2023-04-09T07:42:21.439Z,294.00
2023-04-09T07:43:22.612Z,295.00
2023-04-09T07:44:21.589Z,294.00
2023-04-09T07:45:21.662Z,293.00
2023-04-09T07:46:21.777Z,291.00
2023-04-09T07:47:21.786Z,291.00
2023-04-09T07:48:21.836Z,292.00
2023-04-09T07:49:21.907Z,292.00
2023-04-09T07:50:21.976Z,292.00
2023-04-09T07:51:22.073Z,291.00
2023-04-09T07:52:22.129Z,292.00
2023-04-09T07:53:22.182Z,292.00
2023-04-09T07:54:22.270Z,294.00
2023-04-09T07:55:22.320Z,296.00
2023-04-09T07:56:22.395Z,294.00
2023-04-09T07:57:22.455Z,294.00
2023-04-09T07:58:22.525Z,294.00
2023-04-09T07:59:22.593Z,294.00
2023-04-09T08:00:22.650Z,293.00
2023-04-09T08:01:22.695Z,292.00
2023-04-09T08:02:23.066Z,291.00
2023-04-09T08:03:22.993Z,293.00
2023-04-09T08:04:22.967Z,295.00
2023-04-09T08:05:22.871Z,296.00
2023-04-09T08:06:22.919Z,297.00
2023-04-09T08:07:22.946Z,294.00
2023-04-09T08:08:23.014Z,292.00
2023-04-09T08:09:23.077Z,290.00
2023-04-09T08:10:23.127Z,291.00
2023-04-09T08:11:23.164Z,292.00
2023-04-09T08:12:23.197Z,290.00
2023-04-09T08:13:23.204Z,290.00
2023-04-09T08:14:23.255Z,290.00
2023-04-09T08:15:23.301Z,291.00
2023-04-09T08:16:23.416Z,290.00
2023-04-09T08:17:23.465Z,291.00
2023-04-09T08:18:23.516Z,289.00
2023-04-09T08:19:23.582Z,289.00
2023-04-09T08:20:23.681Z,286.00
2023-04-09T08:21:23.691Z,288.00
2023-04-09T08:22:23.769Z,288.00
2023-04-09T08:23:23.840Z,288.00
2023-04-09T08:24:23.907Z,289.00
2023-04-09T08:25:23.962Z,287.00
2023-04-09T08:26:24.039Z,285.00
2023-04-09T08:27:24.115Z,284.00
2023-04-09T08:28:24.172Z,285.00
2023-04-09T08:29:24.237Z,288.00
2023-04-09T08:30:24.289Z,286.00
2023-04-09T08:31:24.367Z,286.00
2023-04-09T08:32:24.418Z,288.00
2023-04-09T08:33:24.506Z,289.00
2023-04-09T08:34:24.570Z,288.00
2023-04-09T08:35:24.703Z,289.00
2023-04-09T08:36:24.740Z,289.00
2023-04-09T08:37:24.767Z,288.00
2023-04-09T08:38:24.833Z,292.00
2023-04-09T08:39:24.910Z,292.00
2023-04-09T08:40:24.982Z,291.00
2023-04-09T08:41:25.021Z,290.00
2023-04-09T08:42:25.091Z,289.00
2023-04-09T08:43:33.478Z,291.00
2023-04-09T08:44:26.161Z,293.00
2023-04-09T08:45:25.164Z,295.00
2023-04-09T08:46:25.233Z,291.00
2023-04-09T08:47:25.146Z,290.00
2023-04-09T08:48:25.219Z,292.00
2023-04-09T08:49:25.124Z,292.00
2023-04-09T08:50:25.125Z,290.00
2023-04-09T08:51:25.121Z,290.00
2023-04-09T08:52:25.129Z,289.00
2023-04-09T08:53:25.115Z,289.00
2023-04-09T08:54:25.106Z,288.00
2023-04-09T08:55:25.092Z,289.00
2023-04-09T08:56:25.110Z,287.00
2023-04-09T08:57:25.142Z,287.00
2023-04-09T08:58:25.173Z,288.00
2023-04-09T08:59:25.194Z,287.00
2023-04-09T09:00:25.222Z,285.00
2023-04-09T09:01:25.290Z,282.00
2023-04-09T09:02:25.356Z,281.00
2023-04-09T09:03:25.375Z,283.00
2023-04-09T09:04:25.458Z,286.00
2023-04-09T09:05:25.346Z,286.00
2023-04-09T09:06:25.368Z,285.00
2023-04-09T09:07:25.414Z,286.00
2023-04-09T09:08:25.444Z,288.00
2023-04-09T09:09:25.471Z,287.00
2023-04-09T09:10:25.512Z,287.00
2023-04-09T09:11:25.528Z,288.00
2023-04-09T09:12:26.030Z,287.00
2023-04-09T09:13:25.592Z,288.00
2023-04-09T09:14:25.617Z,289.00
2023-04-09T09:15:25.633Z,287.00
2023-04-09T09:16:25.664Z,289.00
2023-04-09T09:17:25.726Z,290.00
2023-04-09T09:18:25.681Z,287.00
2023-04-09T09:19:25.717Z,288.00
2023-04-09T09:20:25.728Z,288.00
2023-04-09T09:21:25.735Z,288.00
2023-04-09T09:22:25.752Z,286.00
2023-04-09T09:23:25.757Z,287.00
2023-04-09T09:24:25.790Z,286.00
2023-04-09T09:25:26.098Z,285.00
2023-04-09T09:26:25.805Z,288.00
2023-04-09T09:27:25.809Z,286.00
2023-04-09T09:28:25.830Z,288.00
2023-04-09T09:29:25.877Z,292.00
2023-04-09T09:30:25.858Z,293.00
2023-04-09T09:31:26.028Z,293.00
2023-04-09T09:32:25.911Z,292.00
2023-04-09T09:33:25.911Z,291.00
2023-04-09T09:34:25.964Z,291.00
2023-04-09T09:35:26.068Z,292.00
2023-04-09T09:36:25.985Z,292.00
2023-04-09T09:37:25.994Z,294.00
2023-04-09T09:38:26.026Z,294.00
2023-04-09T09:39:26.086Z,292.00
2023-04-09T09:40:26.072Z,291.00
2023-04-09T09:41:26.092Z,293.00
2023-04-09T09:42:26.079Z,293.00
2023-04-09T09:43:26.060Z,292.00
2023-04-09T09:44:26.059Z,292.00
2023-04-09T09:45:26.078Z,289.00
2023-04-09T09:46:26.086Z,289.00
2023-04-09T09:47:26.089Z,287.00
2023-04-09T09:48:28.336Z,289.00
2023-04-09T09:49:26.059Z,291.00
2023-04-09T09:50:26.067Z,293.00
2023-04-09T09:51:26.051Z,292.00
2023-04-09T09:52:26.046Z,293.00
2023-04-09T09:53:26.045Z,291.00
2023-04-09T09:54:26.034Z,291.00
2023-04-09T09:55:26.041Z,292.00
2023-04-09T09:56:26.029Z,292.00
2023-04-09T09:57:26.016Z,291.00
2023-04-09T09:58:26.110Z,291.00
2023-04-09T09:59:26.018Z,288.00
2023-04-09T10:00:26.032Z,288.00
2023-04-09T10:01:26.029Z,288.00
2023-04-09T10:02:26.087Z,287.00
2023-04-09T10:03:26.041Z,287.00
2023-04-09T10:04:26.027Z,288.00
2023-04-09T10:05:25.983Z,289.00
2023-04-09T10:06:25.983Z,293.00
2023-04-09T10:07:25.987Z,292.00
2023-04-09T10:08:25.999Z,291.00
2023-04-09T10:09:25.989Z,290.00
2023-04-09T10:10:26.005Z,288.00
2023-04-09T10:11:25.977Z,289.00
2023-04-09T10:12:25.983Z,287.00
2023-04-09T10:13:25.960Z,287.00
2023-04-09T10:14:25.953Z,286.00
2023-04-09T10:15:25.980Z,287.00
2023-04-09T10:16:26.023Z,289.00
2023-04-09T10:17:25.971Z,290.00
2023-04-09T10:18:26.005Z,293.00
2023-04-09T10:19:25.974Z,294.00
2023-04-09T10:20:26.020Z,293.00
2023-04-09T10:21:26.009Z,293.00
2023-04-09T10:22:26.045Z,291.00
2023-04-09T10:23:26.043Z,293.00
2023-04-09T10:24:26.059Z,293.00
2023-04-09T10:25:26.081Z,293.00
2023-04-09T10:26:26.083Z,292.00
2023-04-09T10:27:26.110Z,292.00
2023-04-09T10:28:26.112Z,295.00
2023-04-09T10:29:26.140Z,296.00
2023-04-09T10:30:26.132Z,297.00
2023-04-09T10:31:26.186Z,296.00
2023-04-09T10:32:26.221Z,295.00
2023-04-09T10:33:26.151Z,295.00
2023-04-09T10:34:26.166Z,293.00
2023-04-09T10:35:26.175Z,297.00
2023-04-09T10:36:26.203Z,297.00
2023-04-09T10:37:26.151Z,297.00
2023-04-09T10:38:26.123Z,295.00
2023-04-09T10:39:26.111Z,296.00
2023-04-09T10:40:26.109Z,293.00
2023-04-09T10:41:26.096Z,294.00
2023-04-09T10:42:26.089Z,295.00
2023-04-09T10:43:26.070Z,294.00
2023-04-09T10:44:26.054Z,294.00
2023-04-09T10:45:26.050Z,291.00
2023-04-09T10:46:26.046Z,292.00
2023-04-09T10:47:26.073Z,290.00
2023-04-09T10:48:26.091Z,291.00
2023-04-09T10:49:26.031Z,290.00
2023-04-09T10:50:26.000Z,288.00
2023-04-09T10:51:25.993Z,286.00
2023-04-09T10:52:26.553Z,286.00
2023-04-09T10:53:25.969Z,286.00
2023-04-09T10:54:25.963Z,287.00
2023-04-09T10:55:25.954Z,288.00
2023-04-09T10:56:25.964Z,291.00
2023-04-09T10:57:25.937Z,293.00
2023-04-09T10:58:25.933Z,295.00
2023-04-09T10:59:25.936Z,296.00
2023-04-09T11:00:25.922Z,295.00
2023-04-09T11:01:25.913Z,294.00
2023-04-09T11:02:25.987Z,296.00
2023-04-09T11:03:26.221Z,297.00
2023-04-09T11:04:25.870Z,297.00
2023-04-09T11:05:25.843Z,296.00
2023-04-09T11:06:25.878Z,296.00
2023-04-09T11:07:25.825Z,298.00
2023-04-09T11:08:25.874Z,298.00
2023-04-09T11:09:25.792Z,298.00
2023-04-09T11:10:25.767Z,296.00
2023-04-09T11:11:25.766Z,295.00
2023-04-09T11:12:25.731Z,295.00
2023-04-09T11:13:25.707Z,293.00
2023-04-09T11:14:25.691Z,293.00
2023-04-09T11:15:25.679Z,292.00
2023-04-09T11:16:27.873Z,294.00
2023-04-09T11:17:25.683Z,293.00
2023-04-09T11:18:25.635Z,294.00
2023-04-09T11:19:25.620Z,294.00
2023-04-09T11:20:25.578Z,294.00
2023-04-09T11:21:25.568Z,293.00
2023-04-09T11:22:25.538Z,292.00
2023-04-09T11:23:25.522Z,291.00
2023-04-09T11:24:25.510Z,288.00
2023-04-09T11:25:25.498Z,289.00
2023-04-09T11:26:25.485Z,290.00
2023-04-09T11:27:25.475Z,291.00
2023-04-09T11:28:25.465Z,292.00
2023-04-09T11:29:25.445Z,293.00
2023-04-09T11:30:25.478Z,293.00
2023-04-09T11:31:25.457Z,293.00
2023-04-09T11:32:25.470Z,293.00
2023-04-09T11:33:25.416Z,295.00
2023-04-09T11:34:25.389Z,297.00
2023-04-09T11:35:25.500Z,294.00
2023-04-09T11:36:25.356Z,294.00
2023-04-09T11:37:25.334Z,294.00
2023-04-09T11:38:25.320Z,294.00
2023-04-09T11:39:25.313Z,294.00
2023-04-09T11:40:25.288Z,297.00
2023-04-09T11:41:25.281Z,298.00
2023-04-09T11:42:25.267Z,296.00
2023-04-09T11:43:25.251Z,296.00
2023-04-09T11:44:25.240Z,294.00
2023-04-09T11:45:25.247Z,294.00
2023-04-09T11:46:25.229Z,294.00
2023-04-09T11:47:25.240Z,294.00
2023-04-09T11:48:25.264Z,295.00
2023-04-09T11:49:25.188Z,293.00
2023-04-09T11:50:25.229Z,295.00
2023-04-09T11:51:25.180Z,297.00
2023-04-09T11:52:25.154Z,299.00
2023-04-09T11:53:25.149Z,299.00
2023-04-09T11:54:25.132Z,297.00
2023-04-09T11:55:25.121Z,296.00
2023-04-09T11:56:25.120Z,295.00
2023-04-09T11:57:25.104Z,294.00
2023-04-09T11:58:25.068Z,295.00
2023-04-09T11:59:25.061Z,292.00
2023-04-09T12:00:25.184Z,293.00
2023-04-09T12:01:25.029Z,291.00
2023-04-09T12:02:25.292Z,290.00
2023-04-09T12:03:25.261Z,290.00
2023-04-09T12:04:25.224Z,288.00
2023-04-09T12:05:25.210Z,290.00
2023-04-09T12:06:25.254Z,290.00
2023-04-09T12:07:25.306Z,289.00
2023-04-09T12:08:25.351Z,290.00
2023-04-09T12:09:25.390Z,288.00
2023-04-09T12:10:25.457Z,290.00
2023-04-09T12:11:25.503Z,291.00
2023-04-09T12:12:25.568Z,294.00
2023-04-09T12:13:25.590Z,293.00
2023-04-09T12:14:25.637Z,290.00
2023-04-09T12:15:25.672Z,289.00
2023-04-09T12:16:25.789Z,290.00
2023-04-09T12:17:25.804Z,291.00
2023-04-09T12:18:25.810Z,291.00
2023-04-09T12:19:25.881Z,292.00
2023-04-09T12:20:25.872Z,291.00
2023-04-09T12:21:25.920Z,291.00
2023-04-09T12:22:25.930Z,289.00
2023-04-09T12:23:25.961Z,289.00
2023-04-09T12:24:25.990Z,288.00
2023-04-09T12:25:25.971Z,289.00
2023-04-09T12:26:25.999Z,291.00
2023-04-09T12:27:26.057Z,289.00
2023-04-09T12:28:26.121Z,289.00